createdAt,value
2019-04-16T00:02:08.929Z,99.90
2019-04-16T00:04:44.147Z,99.90
2019-04-16T00:07:32.560Z,99.90
2019-04-16T00:10:08.569Z,99.90
2019-04-16T00:12:46.935Z,99.90
2019-04-16T00:15:17.878Z,99.90
2019-04-16T00:17:48.925Z,99.90
2019-04-16T00:20:19.861Z,99.90
2019-04-16T00:23:05.097Z,99.90
2019-04-16T00:25:36.040Z,99.90
2019-04-16T00:28:07.009Z,99.90
2019-04-16T00:30:37.947Z,99.90
2019-04-16T00:33:10.715Z,99.90
2019-04-16T00:35:46.428Z,99.90
2019-04-16T00:38:15.234Z,99.90
2019-04-16T00:40:46.182Z,99.90
2019-04-16T00:43:17.147Z,99.90
2019-04-16T00:45:48.086Z,99.90
2019-04-16T00:48:19.756Z,99.90
2019-04-16T00:50:50.698Z,99.90
2019-04-16T00:53:21.705Z,99.90
2019-04-16T00:55:52.657Z,99.90
2019-04-16T00:58:23.687Z,99.90
2019-04-16T01:00:54.613Z,99.90
2019-04-16T01:03:26.583Z,99.90
2019-04-16T01:05:57.518Z,99.90
2019-04-16T01:08:28.489Z,99.90
2019-04-16T01:10:59.427Z,99.90
2019-04-16T01:13:30.510Z,99.90
2019-04-16T01:16:03.432Z,99.90
2019-04-16T01:18:38.487Z,99.90
2019-04-16T01:21:06.843Z,99.90
2019-04-16T01:23:37.776Z,99.90
2019-04-16T01:26:08.819Z,99.90
2019-04-16T01:28:47.438Z,99.90
2019-04-16T01:31:22.904Z,99.90
2019-04-16T01:34:07.483Z,99.90
2019-04-16T01:36:56.923Z,99.90
2019-04-16T01:39:42.325Z,99.90
2019-04-16T01:42:14.817Z,99.90
2019-04-16T01:44:47.322Z,99.90
2019-04-16T01:47:18.265Z,99.90
2019-04-16T01:49:49.243Z,99.90
2019-04-16T01:52:20.188Z,99.90
2019-04-16T01:54:51.359Z,99.90
2019-04-16T01:57:23.903Z,99.90
2019-04-16T01:59:54.888Z,99.90
2019-04-16T02:02:25.859Z,99.90
2019-04-16T02:04:56.846Z,99.90
2019-04-16T02:07:28.573Z,99.90
2019-04-16T02:09:59.683Z,99.90
2019-04-16T02:12:30.656Z,99.90
2019-04-16T02:15:01.599Z,99.90
2019-04-16T02:17:32.765Z,99.90
2019-04-16T02:20:05.957Z,99.90
2019-04-16T02:22:36.899Z,99.90
2019-04-16T02:25:08.078Z,99.90
2019-04-16T02:27:39.052Z,99.90
2019-04-16T02:30:09.992Z,99.90
2019-04-16T02:32:40.976Z,99.90
2019-04-16T02:35:12.173Z,99.90
2019-04-16T02:37:43.174Z,99.90
2019-04-16T02:40:18.286Z,99.90
2019-04-16T02:42:46.796Z,99.90
2019-04-16T02:45:23.012Z,99.90
2019-04-16T02:47:50.407Z,99.90
2019-04-16T02:50:35.019Z,99.90
2019-04-16T02:53:07.570Z,99.90
2019-04-16T02:55:44.237Z,99.90
2019-04-16T02:58:19.690Z,99.90
2019-04-16T03:01:08.098Z,99.90
2019-04-16T03:03:43.328Z,99.90
2019-04-16T03:06:14.286Z,99.90
2019-04-16T03:08:45.278Z,99.90
2019-04-16T03:11:17.061Z,99.90
2019-04-16T03:13:49.098Z,99.90
2019-04-16T03:16:30.576Z,99.90
2019-04-16T03:19:03.284Z,99.90
2019-04-16T03:21:34.429Z,99.90
2019-04-16T03:24:08.019Z,99.90
2019-04-16T03:26:38.065Z,99.90
2019-04-16T03:29:09.106Z,99.90
2019-04-16T03:31:40.137Z,99.90
2019-04-16T03:34:11.580Z,99.90
2019-04-16T03:36:42.597Z,99.90
2019-04-16T03:39:14.074Z,99.90
2019-04-16T03:41:45.311Z,99.90
2019-04-16T03:44:16.389Z,99.90
2019-04-16T03:46:47.700Z,99.90
2019-04-16T03:49:18.762Z,99.90
2019-04-16T03:51:49.748Z,99.90
2019-04-16T03:54:22.400Z,99.90
2019-04-16T03:56:53.889Z,99.90
2019-04-16T03:59:24.874Z,99.90
2019-04-16T04:01:56.061Z,99.90
2019-04-16T04:04:29.305Z,99.90
2019-04-16T04:07:00.717Z,99.90
2019-04-16T04:09:32.205Z,99.90
2019-04-16T04:12:03.188Z,99.90
2019-04-16T04:14:34.137Z,99.90
2019-04-16T04:17:06.693Z,99.90
2019-04-16T04:19:37.786Z,99.90
2019-04-16T04:22:08.771Z,99.90
2019-04-16T04:24:39.721Z,99.90
2019-04-16T04:27:14.380Z,99.90
2019-04-16T04:29:46.140Z,99.90
2019-04-16T04:32:16.034Z,99.90
2019-04-16T04:34:48.687Z,99.90
2019-04-16T04:37:20.724Z,99.90
2019-04-16T04:39:51.696Z,99.90
2019-04-16T04:42:25.553Z,99.90
2019-04-16T04:44:55.333Z,99.90
2019-04-16T04:47:26.312Z,99.90
2019-04-16T04:49:59.563Z,99.90
2019-04-16T04:52:29.946Z,99.90
2019-04-16T04:55:00.894Z,99.90
2019-04-16T04:57:31.995Z,99.90
2019-04-16T05:00:05.575Z,99.90
2019-04-16T05:02:36.195Z,99.90
2019-04-16T05:05:24.565Z,99.90
2019-04-16T05:07:52.038Z,99.90
2019-04-16T05:10:23.006Z,99.90
2019-04-16T05:12:54.029Z,99.90
2019-04-16T05:15:26.472Z,99.90
2019-04-16T05:17:57.651Z,99.90
2019-04-16T05:20:30.023Z,99.90
2019-04-16T05:23:01.137Z,99.90
2019-04-16T05:25:34.076Z,99.90
2019-04-16T05:28:04.762Z,99.90
2019-04-16T05:30:35.936Z,99.90
2019-04-16T05:33:06.900Z,99.90
2019-04-16T05:35:38.560Z,99.90
2019-04-16T05:38:10.513Z,99.90
2019-04-16T05:40:41.488Z,99.90
2019-04-16T05:43:12.426Z,99.90
2019-04-16T05:45:43.390Z,99.90
2019-04-16T05:48:14.351Z,99.90
2019-04-16T05:50:45.316Z,99.90
2019-04-16T05:53:16.247Z,99.90
2019-04-16T05:56:00.483Z,99.90
2019-04-16T05:58:31.594Z,99.90
2019-04-16T06:01:14.131Z,99.90
2019-04-16T06:03:46.360Z,99.90
2019-04-16T06:06:18.964Z,99.90
2019-04-16T06:08:49.950Z,99.90
2019-04-16T06:11:29.035Z,99.90
2019-04-16T06:14:09.968Z,99.90
2019-04-16T06:16:48.356Z,99.90
2019-04-16T06:19:23.806Z,99.90
2019-04-16T06:22:05.426Z,99.90
2019-04-16T06:24:44.757Z,99.90
2019-04-16T06:27:18.165Z,99.90
2019-04-16T06:29:57.662Z,99.90
2019-04-16T06:32:31.812Z,99.90
2019-04-16T06:35:20.478Z,99.90
2019-04-16T06:38:01.428Z,99.90
2019-04-16T06:40:43.014Z,99.90
2019-04-16T06:43:16.718Z,99.90
2019-04-16T06:46:08.066Z,99.90
2019-04-16T06:48:39.551Z,99.90
2019-04-16T06:51:25.298Z,99.90
2019-04-16T06:54:14.052Z,99.90
2019-04-16T06:57:02.659Z,99.90
2019-04-16T06:59:35.218Z,99.90
2019-04-16T07:02:11.227Z,99.90
2019-04-16T07:04:53.723Z,99.90
2019-04-16T07:07:45.836Z,99.90
2019-04-16T07:10:17.360Z,99.90
2019-04-16T07:12:48.400Z,99.90
2019-04-16T07:15:24.411Z,99.90
2019-04-16T07:17:52.096Z,99.90
2019-04-16T07:20:23.063Z,99.90
2019-04-16T07:22:54.002Z,99.90
2019-04-16T07:25:27.414Z,99.90
2019-04-16T07:27:59.180Z,99.90
2019-04-16T07:30:31.783Z,99.90
2019-04-16T07:33:07.100Z,99.90
2019-04-16T07:35:57.723Z,99.90
2019-04-16T07:38:30.256Z,99.90
2019-04-16T07:41:12.829Z,99.90
2019-04-16T07:44:04.383Z,99.90
2019-04-16T07:46:35.588Z,99.90
2019-04-16T07:49:12.075Z,99.90
2019-04-16T07:51:50.699Z,99.90
2019-04-16T07:54:36.057Z,99.90
2019-04-16T07:57:07.023Z,99.90
2019-04-16T07:59:37.965Z,99.90
2019-04-16T08:02:09.947Z,99.90
2019-04-16T08:04:40.883Z,99.90
2019-04-16T08:07:11.853Z,99.90
2019-04-16T08:09:42.793Z,99.90
2019-04-16T08:12:29.368Z,99.90
2019-04-16T08:14:46.412Z,99.90
2019-04-16T08:17:17.385Z,99.90
2019-04-16T08:19:49.389Z,99.90
2019-04-16T08:22:20.623Z,99.90
2019-04-16T08:25:03.245Z,99.90
2019-04-16T08:27:34.830Z,99.90
2019-04-16T08:30:10.320Z,99.90
2019-04-16T08:32:41.297Z,99.90
2019-04-16T08:35:12.257Z,99.90
2019-04-16T08:37:49.110Z,99.90
2019-04-16T08:40:15.895Z,99.90
2019-04-16T08:42:46.865Z,99.90
2019-04-16T08:45:20.461Z,99.90
2019-04-16T08:47:50.493Z,99.90
2019-04-16T08:50:25.874Z,99.90
2019-04-16T08:52:54.113Z,99.90
2019-04-16T08:55:25.056Z,99.90
2019-04-16T08:57:56.037Z,99.90
2019-04-16T09:00:26.984Z,99.90
2019-04-16T09:02:59.032Z,99.90
2019-04-16T09:05:31.428Z,99.90
2019-04-16T09:08:12.141Z,99.90
2019-04-16T09:10:36.613Z,99.90
2019-04-16T09:13:09.152Z,99.90
2019-04-16T09:15:40.097Z,99.90
2019-04-16T09:18:12.643Z,99.90
2019-04-16T09:20:44.303Z,99.90
2019-04-16T09:23:15.269Z,99.90
2019-04-16T09:25:47.821Z,99.90
2019-04-16T09:28:26.224Z,98.40
2019-04-16T09:31:00.682Z,96.60
2019-04-16T09:33:36.034Z,95.70
2019-04-16T09:36:08.564Z,95.20
2019-04-16T09:38:49.884Z,93.90
2019-04-16T09:41:28.275Z,92.30
2019-04-16T09:44:00.748Z,90.80
2019-04-16T09:46:50.350Z,90.00
2019-04-16T09:49:05.137Z,89.30
2019-04-16T09:51:37.075Z,87.70
2019-04-16T09:54:12.527Z,86.00
2019-04-16T09:56:40.743Z,85.40
2019-04-16T09:59:16.798Z,82.40
2019-04-16T10:01:49.738Z,79.10
2019-04-16T10:04:21.223Z,69.20
2019-04-16T10:06:52.277Z,54.10
2019-04-16T10:09:23.341Z,47.70
2019-04-16T10:11:57.048Z,39.50
2019-04-16T10:14:27.325Z,36.30
2019-04-16T10:16:58.302Z,36.50
2019-04-16T10:19:29.253Z,36.00
2019-04-16T10:22:00.234Z,35.00
2019-04-16T10:24:48.836Z,35.70
2019-04-16T10:27:21.390Z,35.50
2019-04-16T10:29:52.402Z,32.80
2019-04-16T10:32:23.551Z,33.50
2019-04-16T10:34:54.484Z,31.10
2019-04-16T10:37:25.557Z,31.00
2019-04-16T10:40:01.129Z,30.00
2019-04-16T10:42:33.771Z,29.40
2019-04-16T10:45:10.124Z,29.10
2019-04-16T10:47:54.875Z,29.90
2019-04-16T10:50:25.605Z,29.30
2019-04-16T10:53:14.514Z,30.00
2019-04-16T10:55:49.996Z,31.10
2019-04-16T10:58:31.384Z,30.00
2019-04-16T11:01:18.781Z,29.20
2019-04-16T11:03:51.591Z,28.80
2019-04-16T11:06:40.212Z,29.10
2019-04-16T11:09:11.338Z,29.50
2019-04-16T11:11:42.284Z,28.30
2019-04-16T11:14:13.263Z,27.70
2019-04-16T11:16:45.891Z,28.70
2019-04-16T11:19:16.928Z,28.70
2019-04-16T11:21:47.966Z,29.00
2019-04-16T11:24:20.635Z,28.50
2019-04-16T11:26:51.744Z,27.80
2019-04-16T11:29:22.734Z,26.80
2019-04-16T11:31:54.693Z,27.20
2019-04-16T11:34:25.723Z,27.70
2019-04-16T11:36:58.389Z,27.40
2019-04-16T11:39:29.335Z,27.80
2019-04-16T11:42:00.287Z,26.10
2019-04-16T11:44:31.290Z,26.40
2019-04-16T11:47:02.227Z,26.10
2019-04-16T11:49:33.196Z,25.30
2019-04-16T11:52:04.161Z,25.30
2019-04-16T11:54:35.182Z,25.40
2019-04-16T11:57:06.245Z,25.50
2019-04-16T11:59:38.283Z,26.60
2019-04-16T12:02:16.621Z,25.50
2019-04-16T12:04:49.250Z,24.20
2019-04-16T12:07:37.889Z,24.60
2019-04-16T12:10:17.060Z,24.40
2019-04-16T12:12:52.608Z,24.60
2019-04-16T12:15:25.290Z,24.50
2019-04-16T12:18:00.581Z,26.40
2019-04-16T12:20:44.630Z,27.10
2019-04-16T12:23:17.204Z,25.60
2019-04-16T12:25:52.523Z,25.50
2019-04-16T12:28:34.053Z,26.40
2019-04-16T12:31:24.564Z,26.40
2019-04-16T12:34:12.752Z,24.50
2019-04-16T12:37:01.046Z,24.30
2019-04-16T12:39:41.407Z,25.50
2019-04-16T12:42:29.729Z,25.50
2019-04-16T12:45:09.140Z,27.40
2019-04-16T12:47:42.080Z,28.70
2019-04-16T12:50:17.164Z,28.70
2019-04-16T12:52:58.727Z,29.00
2019-04-16T12:55:47.385Z,28.40
2019-04-16T12:58:20.242Z,29.10
2019-04-16T13:00:59.824Z,29.50
2019-04-16T13:03:38.537Z,30.30
2019-04-16T13:06:15.158Z,30.80
2019-04-16T13:08:53.802Z,31.90
2019-04-16T13:11:31.940Z,31.80
2019-04-16T13:14:13.591Z,32.10
2019-04-16T13:16:56.057Z,29.70
2019-04-16T13:19:31.581Z,28.20
2019-04-16T13:22:03.716Z,26.70
2019-04-16T13:24:44.971Z,26.20
2019-04-16T13:27:17.495Z,24.80
2019-04-16T13:29:48.457Z,24.50
2019-04-16T13:32:19.386Z,23.80
2019-04-16T13:34:50.357Z,25.20
2019-04-16T13:37:21.301Z,23.20
2019-04-16T13:39:59.400Z,24.70
2019-04-16T13:42:29.515Z,25.30
2019-04-16T13:45:16.624Z,26.00
2019-04-16T13:47:54.819Z,26.70
2019-04-16T13:50:41.034Z,27.70
2019-04-16T13:53:29.745Z,25.90
2019-04-16T13:56:18.710Z,24.90
2019-04-16T13:58:56.108Z,24.80
2019-04-16T14:01:33.331Z,25.20
2019-04-16T14:04:04.295Z,25.60
2019-04-16T14:06:35.278Z,25.70
2019-04-16T14:09:08.729Z,27.00
2019-04-16T14:11:40.017Z,27.50
2019-04-16T14:14:11.000Z,28.00
2019-04-16T14:16:43.780Z,28.40
2019-04-16T14:19:14.682Z,27.30
2019-04-16T14:21:45.636Z,26.50
2019-04-16T14:24:16.609Z,27.50
2019-04-16T14:26:47.569Z,28.20
2019-04-16T14:29:18.551Z,29.10
2019-04-16T14:31:49.637Z,29.20
2019-04-16T14:34:40.101Z,30.70
2019-04-16T14:37:11.092Z,31.40
2019-04-16T14:39:43.650Z,32.30
2019-04-16T14:42:14.602Z,31.90
2019-04-16T14:44:48.074Z,31.40
2019-04-16T14:47:19.021Z,29.50
2019-04-16T14:49:50.847Z,28.50
2019-04-16T14:52:22.040Z,27.50
2019-04-16T14:54:52.722Z,28.60
2019-04-16T14:57:23.666Z,28.90
2019-04-16T14:59:56.212Z,29.10
2019-04-16T15:02:29.382Z,29.00
2019-04-16T15:05:02.221Z,28.10
2019-04-16T15:07:43.939Z,28.70
2019-04-16T15:10:31.208Z,29.70
2019-04-16T15:13:03.969Z,30.10
2019-04-16T15:15:34.681Z,31.40
2019-04-16T15:18:26.618Z,31.10
2019-04-16T15:21:12.209Z,31.00
2019-04-16T15:23:42.614Z,30.60
2019-04-16T15:26:17.973Z,33.30
2019-04-16T15:29:02.334Z,33.10
2019-04-16T15:31:50.808Z,33.20
2019-04-16T15:34:25.997Z,34.20
2019-04-16T15:37:01.473Z,35.70
2019-04-16T15:39:36.354Z,35.10
2019-04-16T15:42:24.097Z,34.90
2019-04-16T15:44:59.728Z,35.70
2019-04-16T15:47:32.455Z,36.50
2019-04-16T15:50:07.834Z,36.40
2019-04-16T15:52:52.226Z,37.50
2019-04-16T15:55:24.497Z,37.80
2019-04-16T15:58:13.263Z,37.50
2019-04-16T16:00:48.840Z,36.70
2019-04-16T16:03:37.258Z,37.20
2019-04-16T16:06:16.755Z,38.60
2019-04-16T16:08:56.010Z,38.90
2019-04-16T16:11:28.920Z,40.20
2019-04-16T16:14:01.412Z,40.20
2019-04-16T16:16:41.602Z,42.00
2019-04-16T16:19:08.129Z,40.80
2019-04-16T16:21:37.961Z,41.90
2019-04-16T16:24:09.201Z,41.70
2019-04-16T16:26:40.226Z,42.40
2019-04-16T16:29:11.216Z,42.30
2019-04-16T16:31:42.171Z,42.90
2019-04-16T16:34:13.160Z,43.00
2019-04-16T16:36:44.109Z,42.90
2019-04-16T16:39:15.106Z,43.30
2019-04-16T16:41:46.670Z,43.30
2019-04-16T16:44:17.820Z,43.20
2019-04-16T16:46:59.141Z,43.60
2019-04-16T16:49:30.260Z,43.90
2019-04-16T16:52:18.882Z,42.90
2019-04-16T16:54:51.428Z,43.50
2019-04-16T16:57:23.950Z,43.20
2019-04-16T17:00:14.590Z,44.00
2019-04-16T17:02:56.150Z,43.50
2019-04-16T17:05:28.705Z,43.30
2019-04-16T17:07:59.649Z,44.30
2019-04-16T17:10:30.765Z,45.40
2019-04-16T17:13:01.891Z,46.40
2019-04-16T17:15:32.871Z,47.40
2019-04-16T17:18:03.917Z,47.80
2019-04-16T17:20:34.900Z,48.20
2019-04-16T17:23:05.860Z,48.70
2019-04-16T17:25:37.096Z,48.40
2019-04-16T17:28:08.090Z,49.30
2019-04-16T17:30:39.050Z,50.20
2019-04-16T17:33:10.764Z,50.70
2019-04-16T17:35:46.225Z,51.20
2019-04-16T17:38:16.051Z,51.70
2019-04-16T17:40:51.121Z,52.40
2019-04-16T17:43:35.824Z,52.90
2019-04-16T17:46:08.373Z,53.50
2019-04-16T17:48:43.628Z,54.30
2019-04-16T17:51:23.038Z,54.40
2019-04-16T17:53:55.554Z,55.30
2019-04-16T17:56:33.934Z,55.60
2019-04-16T17:59:18.189Z,55.80
2019-04-16T18:01:48.883Z,56.30
2019-04-16T18:04:25.468Z,57.80
2019-04-16T18:07:05.033Z,58.60
2019-04-16T18:09:40.333Z,59.20
2019-04-16T18:12:17.032Z,59.20
2019-04-16T18:14:59.133Z,59.80
2019-04-16T18:17:47.624Z,59.60
2019-04-16T18:20:21.606Z,61.30
2019-04-16T18:22:54.940Z,62.50
2019-04-16T18:25:25.640Z,62.90
2019-04-16T18:27:58.192Z,63.10
2019-04-16T18:30:33.728Z,63.10
2019-04-16T18:33:18.425Z,63.70
2019-04-16T18:35:56.865Z,65.60
2019-04-16T18:38:38.463Z,67.40
2019-04-16T18:41:09.117Z,68.70
2019-04-16T18:43:44.598Z,70.20
2019-04-16T18:46:22.826Z,69.90
2019-04-16T18:49:04.199Z,73.50
2019-04-16T18:51:35.277Z,72.10
2019-04-16T18:54:06.235Z,71.50
2019-04-16T18:56:37.264Z,74.30
2019-04-16T18:59:08.408Z,74.40
2019-04-16T19:01:40.952Z,76.20
2019-04-16T19:04:11.987Z,78.70
2019-04-16T19:06:43.980Z,80.50
2019-04-16T19:09:14.984Z,82.50
2019-04-16T19:11:45.969Z,85.90
2019-04-16T19:14:16.918Z,88.70
2019-04-16T19:16:47.914Z,90.40
2019-04-16T19:19:22.120Z,92.20
2019-04-16T19:21:52.710Z,94.00
2019-04-16T19:24:24.101Z,95.60
2019-04-16T19:26:55.118Z,96.10
2019-04-16T19:29:26.065Z,97.90
2019-04-16T19:31:57.571Z,99.30
2019-04-16T19:34:31.399Z,99.90
2019-04-16T19:37:02.377Z,99.90
2019-04-16T19:39:33.631Z,99.90
2019-04-16T19:42:04.731Z,99.90
2019-04-16T19:44:40.068Z,99.90
2019-04-16T19:47:11.133Z,99.90
2019-04-16T19:49:42.193Z,99.90
2019-04-16T19:52:14.204Z,99.90
2019-04-16T19:54:45.810Z,99.90
2019-04-16T19:57:16.788Z,99.90
2019-04-16T19:59:48.110Z,99.90
2019-04-16T20:02:19.439Z,99.90
2019-04-16T20:04:50.954Z,99.90
2019-04-16T20:07:22.108Z,99.90
2019-04-16T20:09:53.296Z,99.90
2019-04-16T20:12:25.067Z,99.90
2019-04-16T20:14:57.055Z,99.90
2019-04-16T20:17:28.105Z,99.90
2019-04-16T20:19:59.927Z,99.90
2019-04-16T20:22:31.671Z,99.90
2019-04-16T20:25:02.697Z,99.90
2019-04-16T20:27:36.210Z,99.90
2019-04-16T20:30:10.068Z,99.90
2019-04-16T20:32:42.739Z,99.90
2019-04-16T20:35:18.815Z,99.90
2019-04-16T20:37:50.389Z,99.90
2019-04-16T20:40:22.084Z,99.90
2019-04-16T20:42:53.620Z,99.90
2019-04-16T20:45:24.626Z,99.90
2019-04-16T20:47:55.568Z,99.90
2019-04-16T20:50:27.548Z,99.90
2019-04-16T20:52:58.492Z,99.90
2019-04-16T20:55:29.497Z,99.90
2019-04-16T20:58:00.832Z,99.90
2019-04-16T21:00:33.483Z,99.90
2019-04-16T21:03:04.824Z,99.90
2019-04-16T21:05:36.900Z,99.90
2019-04-16T21:08:07.867Z,99.90
2019-04-16T21:10:39.839Z,99.90
2019-04-16T21:13:15.990Z,99.90
2019-04-16T21:15:43.442Z,99.90
2019-04-16T21:18:14.376Z,99.90
2019-04-16T21:20:45.358Z,99.90
2019-04-16T21:23:16.293Z,99.90
2019-04-16T21:25:47.272Z,99.90
2019-04-16T21:28:34.643Z,99.90
2019-04-16T21:31:07.272Z,99.90
2019-04-16T21:33:54.979Z,99.90
2019-04-16T21:36:28.815Z,99.90
2019-04-16T21:39:07.411Z,99.90
2019-04-16T21:41:39.924Z,99.90
2019-04-16T21:44:12.960Z,99.90
2019-04-16T21:46:44.591Z,99.90
2019-04-16T21:49:15.547Z,99.90
2019-04-16T21:52:04.298Z,99.90
2019-04-16T21:54:35.826Z,99.90
2019-04-16T21:57:09.480Z,99.90
2019-04-16T21:59:39.447Z,99.90
2019-04-16T22:02:27.846Z,99.90
2019-04-16T22:04:58.778Z,99.90
2019-04-16T22:07:29.744Z,99.90
2019-04-16T22:10:00.679Z,99.90
2019-04-16T22:12:31.589Z,99.90
2019-04-16T22:15:02.582Z,99.90
2019-04-16T22:17:35.801Z,99.90
2019-04-16T22:20:07.480Z,99.90
2019-04-16T22:22:38.405Z,99.90
2019-04-16T22:25:09.411Z,99.90
2019-04-16T22:27:40.452Z,99.90
2019-04-16T22:30:11.656Z,99.90
2019-04-16T22:32:42.591Z,99.90
2019-04-16T22:35:13.561Z,99.90
2019-04-16T22:37:44.491Z,99.90
2019-04-16T22:40:29.716Z,99.90
2019-04-16T22:43:05.251Z,99.90
2019-04-16T22:45:34.586Z,99.90
2019-04-16T22:48:05.572Z,99.90
2019-04-16T22:50:38.190Z,99.90
2019-04-16T22:53:09.169Z,99.90
2019-04-16T22:55:42.584Z,99.90
2019-04-16T22:58:25.752Z,99.90
2019-04-16T23:00:58.281Z,99.90
2019-04-16T23:03:29.218Z,99.90
2019-04-16T23:06:05.901Z,99.90
2019-04-16T23:08:34.053Z,99.90
2019-04-16T23:11:05.130Z,99.90
2019-04-16T23:13:36.399Z,99.90
2019-04-16T23:16:07.465Z,99.90
2019-04-16T23:18:38.497Z,99.90
2019-04-16T23:21:11.323Z,99.90
2019-04-16T23:23:42.197Z,99.90
2019-04-16T23:26:13.206Z,99.90
2019-04-16T23:28:44.153Z,99.90
2019-04-16T23:31:15.195Z,99.90
2019-04-16T23:33:46.138Z,99.90
2019-04-16T23:36:17.104Z,99.90
2019-04-16T23:38:48.046Z,99.90
2019-04-16T23:41:19.089Z,99.90
2019-04-16T23:44:07.902Z,99.90
2019-04-16T23:46:38.747Z,99.90
2019-04-16T23:49:20.273Z,99.90
2019-04-16T23:51:52.841Z,99.90
2019-04-16T23:54:28.037Z,99.90
2019-04-16T23:57:06.603Z,99.90
2019-04-16T23:59:55.164Z,99.90
